sensor_id;sensor_type;location;lat;lon;timestamp;P1;durP1;ratioP1;P2;durP2;ratioP2
51006;SDS011;37034;47.886;-3.904;2023-06-22T00:01:59;8.30;;;2.97;;
51006;SDS011;37034;47.886;-3.904;2023-06-22T00:04:25;8.18;;;2.80;;
51006;SDS011;37034;47.886;-3.904;2023-06-22T00:06:51;6.63;;;3.20;;
51006;SDS011;37034;47.886;-3.904;2023-06-22T00:09:17;6.22;;;2.85;;
51006;SDS011;37034;47.886;-3.904;2023-06-22T00:11:43;6.40;;;2.70;;
51006;SDS011;37034;47.886;-3.904;2023-06-22T00:14:08;6.72;;;2.50;;
51006;SDS011;37034;47.886;-3.904;2023-06-22T00:16:34;5.20;;;2.22;;
51006;SDS011;37034;47.886;-3.904;2023-06-22T00:19:00;6.00;;;2.35;;
51006;SDS011;37034;47.886;-3.904;2023-06-22T00:21:27;6.22;;;2.33;;
51006;SDS011;37034;47.886;-3.904;2023-06-22T00:23:52;6.22;;;2.35;;
51006;SDS011;37034;47.886;-3.904;2023-06-22T00:26:18;4.22;;;2.20;;
51006;SDS011;37034;47.886;-3.904;2023-06-22T00:28:45;4.38;;;2.33;;
51006;SDS011;37034;47.886;-3.904;2023-06-22T00:31:11;4.07;;;2.17;;
51006;SDS011;37034;47.886;-3.904;2023-06-22T00:33:37;5.30;;;2.20;;
51006;SDS011;37034;47.886;-3.904;2023-06-22T00:36:03;4.65;;;2.20;;
51006;SDS011;37034;47.886;-3.904;2023-06-22T00:38:29;7.60;;;2.50;;
51006;SDS011;37034;47.886;-3.904;2023-06-22T00:40:55;5.05;;;2.60;;
51006;SDS011;37034;47.886;-3.904;2023-06-22T00:43:20;6.35;;;2.53;;
51006;SDS011;37034;47.886;-3.904;2023-06-22T00:45:46;4.25;;;2.10;;
51006;SDS011;37034;47.886;-3.904;2023-06-22T00:48:12;5.82;;;2.53;;
51006;SDS011;37034;47.886;-3.904;2023-06-22T00:50:39;6.82;;;2.47;;
51006;SDS011;37034;47.886;-3.904;2023-06-22T00:53:06;5.13;;;2.33;;
51006;SDS011;37034;47.886;-3.904;2023-06-22T00:55:33;7.53;;;2.55;;
51006;SDS011;37034;47.886;-3.904;2023-06-22T00:58:03;4.90;;;2.10;;
51006;SDS011;37034;47.886;-3.904;2023-06-22T01:00:32;5.43;;;2.33;;
51006;SDS011;37034;47.886;-3.904;2023-06-22T01:02:58;3.35;;;2.00;;
51006;SDS011;37034;47.886;-3.904;2023-06-22T01:05:27;4.43;;;2.25;;
51006;SDS011;37034;47.886;-3.904;2023-06-22T01:10:50;4.45;;;2.10;;
51006;SDS011;37034;47.886;-3.904;2023-06-22T01:16:10;4.55;;;2.20;;
51006;SDS011;37034;47.886;-3.904;2023-06-22T01:18:43;5.03;;;2.00;;
51006;SDS011;37034;47.886;-3.904;2023-06-22T01:21:14;3.72;;;2.10;;
51006;SDS011;37034;47.886;-3.904;2023-06-22T01:26:25;6.75;;;2.20;;
51006;SDS011;37034;47.886;-3.904;2023-06-22T01:29:01;5.57;;;1.83;;
51006;SDS011;37034;47.886;-3.904;2023-06-22T01:31:30;4.45;;;1.90;;
51006;SDS011;37034;47.886;-3.904;2023-06-22T01:34:00;4.68;;;2.03;;
51006;SDS011;37034;47.886;-3.904;2023-06-22T01:36:28;4.40;;;1.83;;
51006;SDS011;37034;47.886;-3.904;2023-06-22T01:38:55;4.85;;;1.80;;
51006;SDS011;37034;47.886;-3.904;2023-06-22T01:41:25;4.82;;;1.95;;
51006;SDS011;37034;47.886;-3.904;2023-06-22T01:43:52;4.53;;;1.90;;
51006;SDS011;37034;47.886;-3.904;2023-06-22T01:46:19;5.32;;;1.92;;
51006;SDS011;37034;47.886;-3.904;2023-06-22T01:48:46;3.65;;;1.95;;
51006;SDS011;37034;47.886;-3.904;2023-06-22T01:53:38;3.85;;;1.77;;
51006;SDS011;37034;47.886;-3.904;2023-06-22T01:56:04;5.18;;;2.00;;
51006;SDS011;37034;47.886;-3.904;2023-06-22T01:58:30;4.00;;;1.85;;
51006;SDS011;37034;47.886;-3.904;2023-06-22T02:01:09;3.78;;;1.75;;
51006;SDS011;37034;47.886;-3.904;2023-06-22T02:03:50;4.00;;;2.10;;
51006;SDS011;37034;47.886;-3.904;2023-06-22T02:06:38;7.78;;;2.50;;
51006;SDS011;37034;47.886;-3.904;2023-06-22T02:09:11;3.47;;;1.77;;
51006;SDS011;37034;47.886;-3.904;2023-06-22T02:11:41;3.65;;;1.85;;
51006;SDS011;37034;47.886;-3.904;2023-06-22T02:14:09;6.32;;;1.83;;
51006;SDS011;37034;47.886;-3.904;2023-06-22T02:16:35;7.70;;;2.08;;
51006;SDS011;37034;47.886;-3.904;2023-06-22T02:19:02;4.63;;;1.90;;
51006;SDS011;37034;47.886;-3.904;2023-06-22T02:21:29;4.43;;;2.00;;
51006;SDS011;37034;47.886;-3.904;2023-06-22T02:23:56;3.33;;;1.90;;
51006;SDS011;37034;47.886;-3.904;2023-06-22T02:26:21;3.55;;;1.77;;
51006;SDS011;37034;47.886;-3.904;2023-06-22T02:28:48;4.20;;;1.83;;
51006;SDS011;37034;47.886;-3.904;2023-06-22T02:31:14;4.43;;;1.92;;
51006;SDS011;37034;47.886;-3.904;2023-06-22T02:33:41;4.53;;;2.00;;
51006;SDS011;37034;47.886;-3.904;2023-06-22T02:36:06;4.88;;;1.95;;
51006;SDS011;37034;47.886;-3.904;2023-06-22T02:38:34;4.75;;;2.22;;
51006;SDS011;37034;47.886;-3.904;2023-06-22T02:41:02;4.43;;;2.15;;
51006;SDS011;37034;47.886;-3.904;2023-06-22T02:43:28;7.78;;;2.28;;
51006;SDS011;37034;47.886;-3.904;2023-06-22T02:45:53;5.55;;;2.50;;
51006;SDS011;37034;47.886;-3.904;2023-06-22T02:50:45;6.50;;;2.30;;
51006;SDS011;37034;47.886;-3.904;2023-06-22T02:53:11;4.90;;;2.50;;
51006;SDS011;37034;47.886;-3.904;2023-06-22T02:55:37;6.80;;;2.65;;
51006;SDS011;37034;47.886;-3.904;2023-06-22T02:58:04;4.78;;;2.78;;
51006;SDS011;37034;47.886;-3.904;2023-06-22T03:00:31;8.30;;;3.88;;
51006;SDS011;37034;47.886;-3.904;2023-06-22T03:02:57;6.97;;;3.65;;
51006;SDS011;37034;47.886;-3.904;2023-06-22T03:05:23;10.77;;;4.47;;
51006;SDS011;37034;47.886;-3.904;2023-06-22T03:07:49;11.20;;;4.75;;
51006;SDS011;37034;47.886;-3.904;2023-06-22T03:10:15;6.45;;;3.65;;
51006;SDS011;37034;47.886;-3.904;2023-06-22T03:12:41;9.27;;;3.15;;
51006;SDS011;37034;47.886;-3.904;2023-06-22T03:15:08;6.28;;;3.60;;
51006;SDS011;37034;47.886;-3.904;2023-06-22T03:17:35;6.07;;;3.25;;
51006;SDS011;37034;47.886;-3.904;2023-06-22T03:20:02;10.43;;;3.92;;
51006;SDS011;37034;47.886;-3.904;2023-06-22T03:22:34;9.88;;;4.07;;
51006;SDS011;37034;47.886;-3.904;2023-06-22T03:25:00;8.93;;;4.00;;
51006;SDS011;37034;47.886;-3.904;2023-06-22T03:27:26;6.22;;;3.33;;
51006;SDS011;37034;47.886;-3.904;2023-06-22T03:29:52;6.50;;;3.47;;
51006;SDS011;37034;47.886;-3.904;2023-06-22T03:32:18;7.00;;;3.55;;
51006;SDS011;37034;47.886;-3.904;2023-06-22T03:34:43;8.38;;;3.50;;
51006;SDS011;37034;47.886;-3.904;2023-06-22T03:37:12;7.80;;;3.92;;
51006;SDS011;37034;47.886;-3.904;2023-06-22T03:39:39;8.48;;;4.45;;
51006;SDS011;37034;47.886;-3.904;2023-06-22T03:42:05;8.77;;;3.80;;
51006;SDS011;37034;47.886;-3.904;2023-06-22T03:44:31;6.90;;;3.95;;
51006;SDS011;37034;47.886;-3.904;2023-06-22T03:46:56;9.50;;;4.85;;
51006;SDS011;37034;47.886;-3.904;2023-06-22T03:49:22;9.88;;;5.13;;
51006;SDS011;37034;47.886;-3.904;2023-06-22T03:51:48;11.25;;;5.35;;
51006;SDS011;37034;47.886;-3.904;2023-06-22T03:54:13;8.18;;;5.10;;
51006;SDS011;37034;47.886;-3.904;2023-06-22T03:56:39;7.18;;;4.50;;
51006;SDS011;37034;47.886;-3.904;2023-06-22T03:59:05;9.35;;;4.47;;
51006;SDS011;37034;47.886;-3.904;2023-06-22T04:01:30;9.48;;;4.60;;
51006;SDS011;37034;47.886;-3.904;2023-06-22T04:03:56;8.70;;;4.60;;
51006;SDS011;37034;47.886;-3.904;2023-06-22T04:06:21;10.60;;;4.70;;
51006;SDS011;37034;47.886;-3.904;2023-06-22T04:08:47;10.30;;;5.00;;
51006;SDS011;37034;47.886;-3.904;2023-06-22T04:11:16;8.50;;;4.97;;
51006;SDS011;37034;47.886;-3.904;2023-06-22T04:13:43;9.07;;;4.90;;
51006;SDS011;37034;47.886;-3.904;2023-06-22T04:16:08;7.75;;;5.15;;
51006;SDS011;37034;47.886;-3.904;2023-06-22T04:18:34;9.18;;;5.30;;
51006;SDS011;37034;47.886;-3.904;2023-06-22T04:21:00;10.73;;;5.38;;
51006;SDS011;37034;47.886;-3.904;2023-06-22T04:23:26;9.48;;;5.35;;
51006;SDS011;37034;47.886;-3.904;2023-06-22T04:25:51;11.32;;;5.35;;
51006;SDS011;37034;47.886;-3.904;2023-06-22T04:28:17;8.13;;;4.70;;
51006;SDS011;37034;47.886;-3.904;2023-06-22T04:30:43;12.57;;;5.57;;
51006;SDS011;37034;47.886;-3.904;2023-06-22T04:33:14;7.88;;;5.40;;
51006;SDS011;37034;47.886;-3.904;2023-06-22T04:35:40;9.05;;;5.63;;
51006;SDS011;37034;47.886;-3.904;2023-06-22T04:38:06;9.05;;;5.97;;
51006;SDS011;37034;47.886;-3.904;2023-06-22T04:40:32;7.45;;;5.50;;
51006;SDS011;37034;47.886;-3.904;2023-06-22T04:42:58;8.80;;;5.90;;
51006;SDS011;37034;47.886;-3.904;2023-06-22T04:45:27;9.13;;;5.88;;
51006;SDS011;37034;47.886;-3.904;2023-06-22T04:47:54;11.70;;;6.20;;
51006;SDS011;37034;47.886;-3.904;2023-06-22T04:50:20;9.80;;;5.70;;
51006;SDS011;37034;47.886;-3.904;2023-06-22T04:52:47;8.93;;;6.15;;
51006;SDS011;37034;47.886;-3.904;2023-06-22T04:55:12;10.60;;;6.45;;
51006;SDS011;37034;47.886;-3.904;2023-06-22T04:57:43;8.93;;;7.05;;
51006;SDS011;37034;47.886;-3.904;2023-06-22T05:00:14;10.90;;;6.82;;
51006;SDS011;37034;47.886;-3.904;2023-06-22T05:02:43;11.63;;;7.30;;
51006;SDS011;37034;47.886;-3.904;2023-06-22T05:05:13;9.77;;;6.68;;
51006;SDS011;37034;47.886;-3.904;2023-06-22T05:07:39;10.82;;;7.05;;
51006;SDS011;37034;47.886;-3.904;2023-06-22T05:10:08;12.45;;;7.10;;
51006;SDS011;37034;47.886;-3.904;2023-06-22T05:12:37;10.43;;;7.60;;
51006;SDS011;37034;47.886;-3.904;2023-06-22T05:17:30;11.18;;;7.03;;
51006;SDS011;37034;47.886;-3.904;2023-06-22T05:19:56;11.02;;;7.35;;
51006;SDS011;37034;47.886;-3.904;2023-06-22T05:22:21;11.57;;;7.63;;
51006;SDS011;37034;47.886;-3.904;2023-06-22T05:24:47;11.93;;;7.90;;
51006;SDS011;37034;47.886;-3.904;2023-06-22T05:27:13;11.75;;;7.32;;
51006;SDS011;37034;47.886;-3.904;2023-06-22T05:29:39;13.45;;;7.15;;
51006;SDS011;37034;47.886;-3.904;2023-06-22T05:32:05;11.77;;;7.35;;
51006;SDS011;37034;47.886;-3.904;2023-06-22T05:34:31;10.20;;;8.10;;
51006;SDS011;37034;47.886;-3.904;2023-06-22T05:36:57;13.75;;;8.68;;
51006;SDS011;37034;47.886;-3.904;2023-06-22T05:39:26;14.85;;;8.85;;
51006;SDS011;37034;47.886;-3.904;2023-06-22T05:41:51;12.40;;;8.57;;
51006;SDS011;37034;47.886;-3.904;2023-06-22T05:44:17;12.25;;;8.10;;
51006;SDS011;37034;47.886;-3.904;2023-06-22T05:46:44;11.43;;;7.68;;
51006;SDS011;37034;47.886;-3.904;2023-06-22T05:49:11;12.10;;;8.82;;
51006;SDS011;37034;47.886;-3.904;2023-06-22T05:51:37;10.90;;;8.05;;
51006;SDS011;37034;47.886;-3.904;2023-06-22T05:54:03;14.60;;;8.18;;
51006;SDS011;37034;47.886;-3.904;2023-06-22T05:56:29;13.43;;;8.10;;
51006;SDS011;37034;47.886;-3.904;2023-06-22T05:58:55;12.05;;;8.80;;
51006;SDS011;37034;47.886;-3.904;2023-06-22T06:01:20;14.90;;;9.00;;
51006;SDS011;37034;47.886;-3.904;2023-06-22T06:03:46;15.73;;;8.05;;
51006;SDS011;37034;47.886;-3.904;2023-06-22T06:06:13;13.77;;;8.82;;
51006;SDS011;37034;47.886;-3.904;2023-06-22T06:08:39;16.08;;;8.32;;
51006;SDS011;37034;47.886;-3.904;2023-06-22T06:11:05;17.75;;;8.43;;
51006;SDS011;37034;47.886;-3.904;2023-06-22T06:13:30;13.88;;;8.90;;
51006;SDS011;37034;47.886;-3.904;2023-06-22T06:15:56;12.80;;;7.93;;
51006;SDS011;37034;47.886;-3.904;2023-06-22T06:18:22;14.40;;;8.00;;
51006;SDS011;37034;47.886;-3.904;2023-06-22T06:20:48;12.55;;;7.60;;
51006;SDS011;37034;47.886;-3.904;2023-06-22T06:23:13;12.75;;;8.45;;
51006;SDS011;37034;47.886;-3.904;2023-06-22T06:25:39;14.68;;;6.93;;
51006;SDS011;37034;47.886;-3.904;2023-06-22T06:28:05;12.77;;;7.65;;
51006;SDS011;37034;47.886;-3.904;2023-06-22T06:30:30;11.05;;;6.75;;
51006;SDS011;37034;47.886;-3.904;2023-06-22T06:32:56;8.52;;;6.20;;
51006;SDS011;37034;47.886;-3.904;2023-06-22T06:35:22;12.27;;;7.22;;
51006;SDS011;37034;47.886;-3.904;2023-06-22T06:37:48;14.45;;;6.82;;
51006;SDS011;37034;47.886;-3.904;2023-06-22T06:40:15;12.35;;;6.85;;
51006;SDS011;37034;47.886;-3.904;2023-06-22T06:42:43;12.63;;;7.60;;
51006;SDS011;37034;47.886;-3.904;2023-06-22T06:45:10;10.88;;;7.28;;
51006;SDS011;37034;47.886;-3.904;2023-06-22T06:47:37;10.85;;;7.18;;
51006;SDS011;37034;47.886;-3.904;2023-06-22T06:50:04;20.15;;;9.90;;
51006;SDS011;37034;47.886;-3.904;2023-06-22T06:52:30;15.52;;;8.48;;
51006;SDS011;37034;47.886;-3.904;2023-06-22T06:54:56;9.82;;;7.07;;
51006;SDS011;37034;47.886;-3.904;2023-06-22T06:57:21;11.95;;;7.22;;
51006;SDS011;37034;47.886;-3.904;2023-06-22T06:59:49;12.38;;;6.88;;
51006;SDS011;37034;47.886;-3.904;2023-06-22T07:02:17;14.88;;;8.45;;
51006;SDS011;37034;47.886;-3.904;2023-06-22T07:04:44;12.38;;;6.35;;
51006;SDS011;37034;47.886;-3.904;2023-06-22T07:07:09;13.75;;;6.65;;
51006;SDS011;37034;47.886;-3.904;2023-06-22T07:09:35;12.18;;;6.50;;
51006;SDS011;37034;47.886;-3.904;2023-06-22T07:12:01;10.82;;;6.10;;
51006;SDS011;37034;47.886;-3.904;2023-06-22T07:14:26;8.82;;;6.18;;
51006;SDS011;37034;47.886;-3.904;2023-06-22T07:16:52;16.30;;;6.57;;
51006;SDS011;37034;47.886;-3.904;2023-06-22T07:19:24;13.23;;;6.70;;
51006;SDS011;37034;47.886;-3.904;2023-06-22T07:21:50;12.60;;;6.35;;
51006;SDS011;37034;47.886;-3.904;2023-06-22T07:24:16;14.48;;;6.43;;
51006;SDS011;37034;47.886;-3.904;2023-06-22T07:26:42;11.68;;;5.25;;
51006;SDS011;37034;47.886;-3.904;2023-06-22T07:29:11;8.60;;;4.88;;
51006;SDS011;37034;47.886;-3.904;2023-06-22T07:31:37;11.10;;;5.32;;
51006;SDS011;37034;47.886;-3.904;2023-06-22T07:34:05;7.15;;;3.95;;
51006;SDS011;37034;47.886;-3.904;2023-06-22T07:36:30;9.25;;;3.88;;
51006;SDS011;37034;47.886;-3.904;2023-06-22T07:38:56;6.50;;;3.65;;
51006;SDS011;37034;47.886;-3.904;2023-06-22T07:41:21;6.70;;;3.63;;
51006;SDS011;37034;47.886;-3.904;2023-06-22T07:43:47;5.80;;;3.75;;
51006;SDS011;37034;47.886;-3.904;2023-06-22T07:46:13;6.75;;;3.72;;
51006;SDS011;37034;47.886;-3.904;2023-06-22T07:48:39;8.05;;;3.60;;
51006;SDS011;37034;47.886;-3.904;2023-06-22T07:51:06;7.40;;;3.75;;
51006;SDS011;37034;47.886;-3.904;2023-06-22T07:53:32;7.47;;;4.03;;
51006;SDS011;37034;47.886;-3.904;2023-06-22T07:55:58;9.85;;;4.00;;
51006;SDS011;37034;47.886;-3.904;2023-06-22T07:58:23;8.70;;;3.50;;
51006;SDS011;37034;47.886;-3.904;2023-06-22T08:00:49;9.25;;;4.07;;
51006;SDS011;37034;47.886;-3.904;2023-06-22T08:03:15;13.63;;;4.40;;
51006;SDS011;37034;47.886;-3.904;2023-06-22T08:05:41;9.73;;;3.97;;
51006;SDS011;37034;47.886;-3.904;2023-06-22T08:08:06;12.50;;;3.65;;
51006;SDS011;37034;47.886;-3.904;2023-06-22T08:10:32;10.02;;;3.65;;
51006;SDS011;37034;47.886;-3.904;2023-06-22T08:12:58;9.10;;;3.15;;
51006;SDS011;37034;47.886;-3.904;2023-06-22T08:15:23;8.55;;;3.33;;
51006;SDS011;37034;47.886;-3.904;2023-06-22T08:17:51;8.00;;;3.45;;
51006;SDS011;37034;47.886;-3.904;2023-06-22T08:20:17;7.20;;;2.85;;
51006;SDS011;37034;47.886;-3.904;2023-06-22T08:22:43;12.70;;;3.85;;
51006;SDS011;37034;47.886;-3.904;2023-06-22T08:25:09;4.45;;;2.92;;
51006;SDS011;37034;47.886;-3.904;2023-06-22T08:27:35;8.25;;;3.63;;
51006;SDS011;37034;47.886;-3.904;2023-06-22T08:30:01;12.55;;;2.83;;
51006;SDS011;37034;47.886;-3.904;2023-06-22T08:32:28;5.63;;;3.10;;
51006;SDS011;37034;47.886;-3.904;2023-06-22T08:37:20;8.95;;;3.47;;
51006;SDS011;37034;47.886;-3.904;2023-06-22T08:39:46;10.15;;;3.33;;
51006;SDS011;37034;47.886;-3.904;2023-06-22T08:42:12;7.13;;;3.28;;
51006;SDS011;37034;47.886;-3.904;2023-06-22T08:44:37;6.90;;;2.90;;
51006;SDS011;37034;47.886;-3.904;2023-06-22T08:47:03;6.00;;;3.08;;
51006;SDS011;37034;47.886;-3.904;2023-06-22T08:49:29;7.60;;;3.08;;
51006;SDS011;37034;47.886;-3.904;2023-06-22T08:51:55;6.18;;;2.72;;
51006;SDS011;37034;47.886;-3.904;2023-06-22T08:54:21;6.53;;;2.90;;
51006;SDS011;37034;47.886;-3.904;2023-06-22T08:59:14;6.03;;;2.75;;
51006;SDS011;37034;47.886;-3.904;2023-06-22T09:01:39;5.80;;;2.80;;
51006;SDS011;37034;47.886;-3.904;2023-06-22T09:04:05;8.80;;;3.65;;
51006;SDS011;37034;47.886;-3.904;2023-06-22T09:06:32;5.07;;;2.92;;
51006;SDS011;37034;47.886;-3.904;2023-06-22T09:08:58;5.03;;;2.80;;
51006;SDS011;37034;47.886;-3.904;2023-06-22T09:11:27;8.43;;;3.25;;
51006;SDS011;37034;47.886;-3.904;2023-06-22T09:13:52;5.28;;;3.00;;
51006;SDS011;37034;47.886;-3.904;2023-06-22T09:16:18;6.32;;;2.97;;
51006;SDS011;37034;47.886;-3.904;2023-06-22T09:18:47;7.35;;;3.13;;
51006;SDS011;37034;47.886;-3.904;2023-06-22T09:21:13;4.43;;;2.63;;
51006;SDS011;37034;47.886;-3.904;2023-06-22T09:23:39;4.28;;;2.70;;
51006;SDS011;37034;47.886;-3.904;2023-06-22T09:26:05;5.53;;;2.97;;
51006;SDS011;37034;47.886;-3.904;2023-06-22T09:28:30;12.93;;;3.00;;
51006;SDS011;37034;47.886;-3.904;2023-06-22T09:30:56;8.20;;;2.92;;
51006;SDS011;37034;47.886;-3.904;2023-06-22T09:33:24;5.25;;;3.00;;
51006;SDS011;37034;47.886;-3.904;2023-06-22T09:35:50;4.80;;;2.70;;
51006;SDS011;37034;47.886;-3.904;2023-06-22T09:38:16;5.60;;;2.90;;
51006;SDS011;37034;47.886;-3.904;2023-06-22T09:40:42;7.18;;;2.50;;
51006;SDS011;37034;47.886;-3.904;2023-06-22T09:43:07;5.85;;;2.70;;
51006;SDS011;37034;47.886;-3.904;2023-06-22T09:45:33;5.78;;;2.83;;
51006;SDS011;37034;47.886;-3.904;2023-06-22T09:47:59;4.63;;;2.80;;
51006;SDS011;37034;47.886;-3.904;2023-06-22T09:50:25;5.03;;;2.70;;
51006;SDS011;37034;47.886;-3.904;2023-06-22T09:52:50;5.60;;;2.53;;
51006;SDS011;37034;47.886;-3.904;2023-06-22T09:55:20;5.28;;;2.67;;
51006;SDS011;37034;47.886;-3.904;2023-06-22T09:57:46;4.70;;;2.67;;
51006;SDS011;37034;47.886;-3.904;2023-06-22T10:00:11;4.22;;;2.45;;
51006;SDS011;37034;47.886;-3.904;2023-06-22T10:02:39;4.78;;;2.72;;
51006;SDS011;37034;47.886;-3.904;2023-06-22T10:05:06;5.20;;;2.30;;
51006;SDS011;37034;47.886;-3.904;2023-06-22T10:07:32;8.25;;;2.90;;
51006;SDS011;37034;47.886;-3.904;2023-06-22T10:09:58;2.97;;;2.20;;
51006;SDS011;37034;47.886;-3.904;2023-06-22T10:12:25;3.13;;;2.50;;
51006;SDS011;37034;47.886;-3.904;2023-06-22T10:14:52;4.82;;;2.60;;
51006;SDS011;37034;47.886;-3.904;2023-06-22T10:17:18;3.78;;;2.42;;
51006;SDS011;37034;47.886;-3.904;2023-06-22T10:19:43;4.97;;;2.20;;
51006;SDS011;37034;47.886;-3.904;2023-06-22T10:22:09;7.82;;;2.47;;
51006;SDS011;37034;47.886;-3.904;2023-06-22T10:24:35;5.90;;;2.88;;
51006;SDS011;37034;47.886;-3.904;2023-06-22T10:27:00;4.43;;;2.40;;
51006;SDS011;37034;47.886;-3.904;2023-06-22T10:29:26;4.50;;;2.50;;
51006;SDS011;37034;47.886;-3.904;2023-06-22T10:31:52;4.72;;;2.70;;
51006;SDS011;37034;47.886;-3.904;2023-06-22T10:34:18;3.33;;;2.17;;
51006;SDS011;37034;47.886;-3.904;2023-06-22T10:36:43;5.05;;;2.35;;
51006;SDS011;37034;47.886;-3.904;2023-06-22T10:39:12;4.15;;;2.20;;
51006;SDS011;37034;47.886;-3.904;2023-06-22T10:41:37;5.95;;;2.55;;
51006;SDS011;37034;47.886;-3.904;2023-06-22T10:44:03;4.18;;;2.30;;
51006;SDS011;37034;47.886;-3.904;2023-06-22T10:46:29;7.05;;;3.33;;
51006;SDS011;37034;47.886;-3.904;2023-06-22T10:48:54;5.10;;;2.38;;
51006;SDS011;37034;47.886;-3.904;2023-06-22T10:51:22;5.63;;;2.75;;
51006;SDS011;37034;47.886;-3.904;2023-06-22T10:56:13;8.23;;;2.90;;
51006;SDS011;37034;47.886;-3.904;2023-06-22T11:01:04;5.38;;;2.58;;
51006;SDS011;37034;47.886;-3.904;2023-06-22T11:05:55;5.82;;;2.53;;
51006;SDS011;37034;47.886;-3.904;2023-06-22T11:08:21;6.50;;;2.70;;
51006;SDS011;37034;47.886;-3.904;2023-06-22T11:13:12;4.75;;;2.75;;
51006;SDS011;37034;47.886;-3.904;2023-06-22T11:18:03;4.95;;;2.80;;
51006;SDS011;37034;47.886;-3.904;2023-06-22T11:20:30;5.43;;;2.72;;
51006;SDS011;37034;47.886;-3.904;2023-06-22T11:22:56;6.63;;;2.83;;
51006;SDS011;37034;47.886;-3.904;2023-06-22T11:27:47;5.00;;;2.58;;
51006;SDS011;37034;47.886;-3.904;2023-06-22T11:30:13;5.47;;;2.95;;
51006;SDS011;37034;47.886;-3.904;2023-06-22T11:32:39;4.82;;;2.70;;
51006;SDS011;37034;47.886;-3.904;2023-06-22T11:35:04;4.15;;;2.42;;
51006;SDS011;37034;47.886;-3.904;2023-06-22T11:39:56;5.50;;;2.55;;
51006;SDS011;37034;47.886;-3.904;2023-06-22T11:44:48;4.53;;;2.58;;
51006;SDS011;37034;47.886;-3.904;2023-06-22T11:47:14;4.13;;;2.40;;
51006;SDS011;37034;47.886;-3.904;2023-06-22T11:52:06;6.15;;;2.53;;
51006;SDS011;37034;47.886;-3.904;2023-06-22T11:56:57;3.40;;;2.20;;
51006;SDS011;37034;47.886;-3.904;2023-06-22T12:01:48;5.35;;;2.90;;
51006;SDS011;37034;47.886;-3.904;2023-06-22T12:04:16;4.30;;;2.78;;
51006;SDS011;37034;47.886;-3.904;2023-06-22T12:09:08;5.93;;;2.50;;
51006;SDS011;37034;47.886;-3.904;2023-06-22T12:11:34;3.92;;;2.47;;
51006;SDS011;37034;47.886;-3.904;2023-06-22T12:16:30;7.13;;;2.92;;
51006;SDS011;37034;47.886;-3.904;2023-06-22T12:18:55;5.10;;;2.90;;
51006;SDS011;37034;47.886;-3.904;2023-06-22T12:23:47;3.92;;;2.78;;
51006;SDS011;37034;47.886;-3.904;2023-06-22T12:28:38;3.50;;;2.53;;
51006;SDS011;37034;47.886;-3.904;2023-06-22T12:33:29;7.68;;;3.15;;
51006;SDS011;37034;47.886;-3.904;2023-06-22T12:35:55;3.85;;;2.70;;
51006;SDS011;37034;47.886;-3.904;2023-06-22T12:38:21;8.00;;;3.15;;
51006;SDS011;37034;47.886;-3.904;2023-06-22T12:40:49;4.32;;;2.90;;
51006;SDS011;37034;47.886;-3.904;2023-06-22T12:45:40;5.60;;;3.08;;
51006;SDS011;37034;47.886;-3.904;2023-06-22T12:50:31;5.38;;;2.92;;
51006;SDS011;37034;47.886;-3.904;2023-06-22T12:55:23;4.75;;;3.10;;
51006;SDS011;37034;47.886;-3.904;2023-06-22T13:00:14;4.90;;;2.70;;
51006;SDS011;37034;47.886;-3.904;2023-06-22T13:02:40;3.72;;;2.70;;
51006;SDS011;37034;47.886;-3.904;2023-06-22T13:07:31;6.30;;;2.85;;
51006;SDS011;37034;47.886;-3.904;2023-06-22T13:12:22;7.20;;;3.08;;
51006;SDS011;37034;47.886;-3.904;2023-06-22T13:17:14;8.30;;;2.80;;
51006;SDS011;37034;47.886;-3.904;2023-06-22T13:22:09;5.63;;;2.92;;
51006;SDS011;37034;47.886;-3.904;2023-06-22T13:24:50;3.75;;;2.80;;
51006;SDS011;37034;47.886;-3.904;2023-06-22T13:29:41;5.43;;;2.60;;
51006;SDS011;37034;47.886;-3.904;2023-06-22T13:34:33;4.63;;;2.58;;
51006;SDS011;37034;47.886;-3.904;2023-06-22T13:39:24;4.55;;;2.63;;
51006;SDS011;37034;47.886;-3.904;2023-06-22T13:44:15;6.20;;;2.70;;
51006;SDS011;37034;47.886;-3.904;2023-06-22T13:49:06;4.38;;;3.05;;
51006;SDS011;37034;47.886;-3.904;2023-06-22T13:53:58;5.20;;;2.70;;
51006;SDS011;37034;47.886;-3.904;2023-06-22T13:58:49;3.78;;;2.70;;
51006;SDS011;37034;47.886;-3.904;2023-06-22T14:03:40;7.65;;;3.25;;
51006;SDS011;37034;47.886;-3.904;2023-06-22T14:08:31;3.05;;;2.42;;
51006;SDS011;37034;47.886;-3.904;2023-06-22T14:13:22;6.53;;;2.90;;
51006;SDS011;37034;47.886;-3.904;2023-06-22T14:18:14;6.93;;;3.00;;
51006;SDS011;37034;47.886;-3.904;2023-06-22T14:20:40;8.25;;;3.00;;
51006;SDS011;37034;47.886;-3.904;2023-06-22T14:23:05;4.80;;;2.60;;
51006;SDS011;37034;47.886;-3.904;2023-06-22T14:27:57;7.95;;;2.95;;
51006;SDS011;37034;47.886;-3.904;2023-06-22T14:30:22;5.35;;;2.75;;
51006;SDS011;37034;47.886;-3.904;2023-06-22T14:32:48;4.97;;;2.90;;
51006;SDS011;37034;47.886;-3.904;2023-06-22T14:35:13;6.57;;;2.75;;
51006;SDS011;37034;47.886;-3.904;2023-06-22T14:37:39;7.20;;;3.05;;
51006;SDS011;37034;47.886;-3.904;2023-06-22T14:42:30;6.70;;;2.85;;
51006;SDS011;37034;47.886;-3.904;2023-06-22T14:47:22;6.38;;;2.97;;
51006;SDS011;37034;47.886;-3.904;2023-06-22T14:52:13;7.50;;;3.00;;
51006;SDS011;37034;47.886;-3.904;2023-06-22T14:54:39;5.25;;;3.05;;
51006;SDS011;37034;47.886;-3.904;2023-06-22T14:57:05;9.30;;;2.70;;
51006;SDS011;37034;47.886;-3.904;2023-06-22T15:01:56;7.28;;;3.20;;
51006;SDS011;37034;47.886;-3.904;2023-06-22T15:04:21;10.02;;;2.88;;
51006;SDS011;37034;47.886;-3.904;2023-06-22T15:09:13;7.65;;;2.78;;
51006;SDS011;37034;47.886;-3.904;2023-06-22T15:14:04;3.20;;;2.22;;
51006;SDS011;37034;47.886;-3.904;2023-06-22T15:18:55;4.25;;;2.50;;
51006;SDS011;37034;47.886;-3.904;2023-06-22T15:23:46;6.13;;;2.58;;
51006;SDS011;37034;47.886;-3.904;2023-06-22T15:28:39;5.85;;;3.05;;
51006;SDS011;37034;47.886;-3.904;2023-06-22T15:31:05;6.53;;;2.67;;
51006;SDS011;37034;47.886;-3.904;2023-06-22T15:33:31;4.70;;;2.50;;
51006;SDS011;37034;47.886;-3.904;2023-06-22T15:35:57;3.65;;;2.30;;
51006;SDS011;37034;47.886;-3.904;2023-06-22T15:38:28;5.43;;;2.53;;
51006;SDS011;37034;47.886;-3.904;2023-06-22T15:43:19;6.85;;;2.85;;
51006;SDS011;37034;47.886;-3.904;2023-06-22T15:48:10;4.10;;;2.67;;
51006;SDS011;37034;47.886;-3.904;2023-06-22T15:53:01;3.90;;;2.80;;
51006;SDS011;37034;47.886;-3.904;2023-06-22T15:57:53;4.00;;;2.45;;
51006;SDS011;37034;47.886;-3.904;2023-06-22T16:02:46;4.32;;;2.60;;
51006;SDS011;37034;47.886;-3.904;2023-06-22T16:07:37;7.95;;;2.38;;
51006;SDS011;37034;47.886;-3.904;2023-06-22T16:10:04;9.52;;;2.80;;
51006;SDS011;37034;47.886;-3.904;2023-06-22T16:12:30;5.45;;;2.67;;
51006;SDS011;37034;47.886;-3.904;2023-06-22T16:14:58;4.30;;;2.72;;
51006;SDS011;37034;47.886;-3.904;2023-06-22T16:19:51;4.50;;;2.35;;
51006;SDS011;37034;47.886;-3.904;2023-06-22T16:22:20;5.85;;;2.60;;
51006;SDS011;37034;47.886;-3.904;2023-06-22T16:24:46;4.63;;;2.70;;
51006;SDS011;37034;47.886;-3.904;2023-06-22T16:29:37;4.72;;;2.22;;
51006;SDS011;37034;47.886;-3.904;2023-06-22T16:32:04;4.20;;;2.25;;
51006;SDS011;37034;47.886;-3.904;2023-06-22T16:34:31;3.70;;;2.35;;
51006;SDS011;37034;47.886;-3.904;2023-06-22T16:39:22;6.05;;;2.40;;
51006;SDS011;37034;47.886;-3.904;2023-06-22T16:44:14;5.60;;;2.30;;
51006;SDS011;37034;47.886;-3.904;2023-06-22T16:49:06;4.30;;;2.40;;
51006;SDS011;37034;47.886;-3.904;2023-06-22T16:53:57;5.57;;;2.45;;
51006;SDS011;37034;47.886;-3.904;2023-06-22T16:56:24;5.65;;;2.35;;
51006;SDS011;37034;47.886;-3.904;2023-06-22T16:58:52;5.00;;;2.45;;
51006;SDS011;37034;47.886;-3.904;2023-06-22T17:01:20;6.20;;;2.22;;
51006;SDS011;37034;47.886;-3.904;2023-06-22T17:03:48;4.65;;;2.30;;
51006;SDS011;37034;47.886;-3.904;2023-06-22T17:06:32;3.92;;;2.40;;